sensor_id;sensor_type;location;lat;lon;timestamp;P1;durP1;ratioP1;P2;durP2;ratioP2
46447;SDS011;32145;50.390;30.778;2023-04-01T00:01:53;45.72;;;27.83;;
46447;SDS011;32145;50.390;30.778;2023-04-01T00:04:50;43.47;;;27.00;;
46447;SDS011;32145;50.390;30.778;2023-04-01T00:07:44;44.92;;;27.58;;
46447;SDS011;32145;50.390;30.778;2023-04-01T00:10:40;48.30;;;27.08;;
46447;SDS011;32145;50.390;30.778;2023-04-01T00:13:34;46.60;;;27.10;;
46447;SDS011;32145;50.390;30.778;2023-04-01T00:16:28;45.63;;;27.75;;
46447;SDS011;32145;50.390;30.778;2023-04-01T00:19:22;47.05;;;28.13;;
46447;SDS011;32145;50.390;30.778;2023-04-01T00:22:19;48.65;;;28.10;;
46447;SDS011;32145;50.390;30.778;2023-04-01T00:25:14;43.45;;;26.58;;
46447;SDS011;32145;50.390;30.778;2023-04-01T00:28:09;47.58;;;27.75;;
46447;SDS011;32145;50.390;30.778;2023-04-01T00:31:06;47.90;;;28.38;;
46447;SDS011;32145;50.390;30.778;2023-04-01T00:34:02;48.83;;;28.17;;
46447;SDS011;32145;50.390;30.778;2023-04-01T00:36:58;49.55;;;28.85;;
46447;SDS011;32145;50.390;30.778;2023-04-01T00:39:55;48.38;;;29.00;;
46447;SDS011;32145;50.390;30.778;2023-04-01T00:42:51;47.72;;;27.98;;
46447;SDS011;32145;50.390;30.778;2023-04-01T00:45:49;45.28;;;27.58;;
46447;SDS011;32145;50.390;30.778;2023-04-01T00:48:47;49.10;;;28.60;;
46447;SDS011;32145;50.390;30.778;2023-04-01T00:51:46;45.67;;;26.25;;
46447;SDS011;32145;50.390;30.778;2023-04-01T00:54:46;39.33;;;25.17;;
46447;SDS011;32145;50.390;30.778;2023-04-01T00:57:45;43.83;;;27.60;;
46447;SDS011;32145;50.390;30.778;2023-04-01T01:00:43;43.22;;;26.98;;
46447;SDS011;32145;50.390;30.778;2023-04-01T01:03:44;46.13;;;27.38;;
46447;SDS011;32145;50.390;30.778;2023-04-01T01:06:43;45.17;;;26.05;;
46447;SDS011;32145;50.390;30.778;2023-04-01T01:09:47;44.47;;;26.65;;
46447;SDS011;32145;50.390;30.778;2023-04-01T01:12:51;41.78;;;25.95;;
46447;SDS011;32145;50.390;30.778;2023-04-01T01:15:56;45.58;;;26.73;;
46447;SDS011;32145;50.390;30.778;2023-04-01T01:18:56;42.70;;;26.20;;
46447;SDS011;32145;50.390;30.778;2023-04-01T01:22:07;41.83;;;25.90;;
46447;SDS011;32145;50.390;30.778;2023-04-01T01:25:24;44.45;;;26.17;;
46447;SDS011;32145;50.390;30.778;2023-04-01T01:28:32;42.90;;;27.10;;
46447;SDS011;32145;50.390;30.778;2023-04-01T01:31:41;43.55;;;26.27;;
46447;SDS011;32145;50.390;30.778;2023-04-01T01:34:42;44.17;;;25.65;;
46447;SDS011;32145;50.390;30.778;2023-04-01T01:37:45;43.10;;;27.38;;
46447;SDS011;32145;50.390;30.778;2023-04-01T01:40:44;43.67;;;27.83;;
46447;SDS011;32145;50.390;30.778;2023-04-01T01:43:43;42.67;;;26.60;;
46447;SDS011;32145;50.390;30.778;2023-04-01T01:46:39;44.20;;;27.42;;
46447;SDS011;32145;50.390;30.778;2023-04-01T01:49:38;40.45;;;25.42;;
46447;SDS011;32145;50.390;30.778;2023-04-01T01:52:37;41.70;;;25.92;;
46447;SDS011;32145;50.390;30.778;2023-04-01T01:55:36;44.70;;;29.33;;
46447;SDS011;32145;50.390;30.778;2023-04-01T01:58:34;47.70;;;27.55;;
46447;SDS011;32145;50.390;30.778;2023-04-01T02:01:35;46.03;;;27.95;;
46447;SDS011;32145;50.390;30.778;2023-04-01T02:04:35;43.92;;;28.08;;
46447;SDS011;32145;50.390;30.778;2023-04-01T02:07:35;48.90;;;29.08;;
46447;SDS011;32145;50.390;30.778;2023-04-01T02:10:35;50.03;;;29.33;;
46447;SDS011;32145;50.390;30.778;2023-04-01T02:13:35;44.97;;;28.42;;
46447;SDS011;32145;50.390;30.778;2023-04-01T02:16:37;46.08;;;28.00;;
46447;SDS011;32145;50.390;30.778;2023-04-01T02:19:40;43.47;;;28.20;;
46447;SDS011;32145;50.390;30.778;2023-04-01T02:22:39;47.20;;;28.02;;
46447;SDS011;32145;50.390;30.778;2023-04-01T02:25:41;48.65;;;28.77;;
46447;SDS011;32145;50.390;30.778;2023-04-01T02:28:39;41.85;;;26.98;;
46447;SDS011;32145;50.390;30.778;2023-04-01T02:31:38;46.25;;;28.10;;
46447;SDS011;32145;50.390;30.778;2023-04-01T02:34:35;47.38;;;27.52;;
46447;SDS011;32145;50.390;30.778;2023-04-01T02:37:32;47.35;;;28.75;;
46447;SDS011;32145;50.390;30.778;2023-04-01T02:40:29;45.78;;;27.48;;
46447;SDS011;32145;50.390;30.778;2023-04-01T02:43:27;49.42;;;28.17;;
46447;SDS011;32145;50.390;30.778;2023-04-01T02:46:23;47.55;;;27.80;;
46447;SDS011;32145;50.390;30.778;2023-04-01T02:49:19;45.35;;;28.60;;
46447;SDS011;32145;50.390;30.778;2023-04-01T02:52:16;48.95;;;29.20;;
46447;SDS011;32145;50.390;30.778;2023-04-01T02:55:12;49.25;;;28.30;;
46447;SDS011;32145;50.390;30.778;2023-04-01T02:58:06;47.40;;;28.73;;
46447;SDS011;32145;50.390;30.778;2023-04-01T03:01:02;44.97;;;27.05;;
46447;SDS011;32145;50.390;30.778;2023-04-01T03:03:56;47.72;;;28.40;;
46447;SDS011;32145;50.390;30.778;2023-04-01T03:06:50;53.17;;;29.63;;
46447;SDS011;32145;50.390;30.778;2023-04-01T03:09:45;43.53;;;28.05;;
46447;SDS011;32145;50.390;30.778;2023-04-01T03:12:39;46.28;;;28.08;;
46447;SDS011;32145;50.390;30.778;2023-04-01T03:15:33;45.33;;;28.27;;
46447;SDS011;32145;50.390;30.778;2023-04-01T03:18:29;48.92;;;30.00;;
46447;SDS011;32145;50.390;30.778;2023-04-01T03:21:24;48.58;;;28.77;;
46447;SDS011;32145;50.390;30.778;2023-04-01T03:24:19;44.70;;;27.02;;
46447;SDS011;32145;50.390;30.778;2023-04-01T03:27:13;45.15;;;27.48;;
46447;SDS011;32145;50.390;30.778;2023-04-01T03:30:08;42.78;;;27.30;;
46447;SDS011;32145;50.390;30.778;2023-04-01T03:33:03;44.60;;;27.23;;
46447;SDS011;32145;50.390;30.778;2023-04-01T03:35:59;45.50;;;27.58;;
46447;SDS011;32145;50.390;30.778;2023-04-01T03:38:53;43.63;;;27.85;;
46447;SDS011;32145;50.390;30.778;2023-04-01T03:41:47;49.80;;;28.75;;
46447;SDS011;32145;50.390;30.778;2023-04-01T03:44:42;47.10;;;28.13;;
46447;SDS011;32145;50.390;30.778;2023-04-01T03:47:36;50.95;;;28.13;;
46447;SDS011;32145;50.390;30.778;2023-04-01T03:50:30;46.55;;;29.23;;
46447;SDS011;32145;50.390;30.778;2023-04-01T03:53:28;50.90;;;29.35;;
46447;SDS011;32145;50.390;30.778;2023-04-01T03:56:25;45.15;;;27.92;;
46447;SDS011;32145;50.390;30.778;2023-04-01T03:59:21;51.22;;;29.13;;
46447;SDS011;32145;50.390;30.778;2023-04-01T04:02:17;47.92;;;27.35;;
46447;SDS011;32145;50.390;30.778;2023-04-01T04:05:14;46.30;;;28.08;;
46447;SDS011;32145;50.390;30.778;2023-04-01T04:08:10;47.72;;;27.95;;
46447;SDS011;32145;50.390;30.778;2023-04-01T04:11:08;47.92;;;27.45;;
46447;SDS011;32145;50.390;30.778;2023-04-01T04:14:04;41.55;;;27.20;;
46447;SDS011;32145;50.390;30.778;2023-04-01T04:17:00;47.13;;;28.23;;
46447;SDS011;32145;50.390;30.778;2023-04-01T04:19:57;46.25;;;27.10;;
46447;SDS011;32145;50.390;30.778;2023-04-01T04:22:53;44.85;;;25.67;;
46447;SDS011;32145;50.390;30.778;2023-04-01T04:25:54;46.40;;;27.35;;
46447;SDS011;32145;50.390;30.778;2023-04-01T04:28:52;42.08;;;26.40;;
46447;SDS011;32145;50.390;30.778;2023-04-01T04:31:47;44.22;;;27.40;;
46447;SDS011;32145;50.390;30.778;2023-04-01T04:34:41;41.33;;;25.98;;
46447;SDS011;32145;50.390;30.778;2023-04-01T04:37:36;40.90;;;24.52;;
46447;SDS011;32145;50.390;30.778;2023-04-01T04:40:30;42.95;;;25.98;;
46447;SDS011;32145;50.390;30.778;2023-04-01T04:43:25;41.72;;;24.42;;
46447;SDS011;32145;50.390;30.778;2023-04-01T04:46:20;40.88;;;24.60;;
46447;SDS011;32145;50.390;30.778;2023-04-01T04:49:15;42.30;;;24.90;;
46447;SDS011;32145;50.390;30.778;2023-04-01T04:52:10;42.88;;;25.92;;
46447;SDS011;32145;50.390;30.778;2023-04-01T04:55:05;44.42;;;25.27;;
46447;SDS011;32145;50.390;30.778;2023-04-01T04:57:59;44.47;;;26.90;;
46447;SDS011;32145;50.390;30.778;2023-04-01T05:00:54;41.60;;;23.92;;
46447;SDS011;32145;50.390;30.778;2023-04-01T05:03:49;39.15;;;23.88;;
46447;SDS011;32145;50.390;30.778;2023-04-01T05:06:43;40.60;;;23.83;;
46447;SDS011;32145;50.390;30.778;2023-04-01T05:09:38;40.78;;;24.50;;
46447;SDS011;32145;50.390;30.778;2023-04-01T05:12:32;42.33;;;23.48;;
46447;SDS011;32145;50.390;30.778;2023-04-01T05:15:26;39.67;;;24.30;;
46447;SDS011;32145;50.390;30.778;2023-04-01T05:18:21;41.75;;;24.75;;
46447;SDS011;32145;50.390;30.778;2023-04-01T05:21:16;37.15;;;23.02;;
46447;SDS011;32145;50.390;30.778;2023-04-01T05:24:11;38.97;;;22.73;;
46447;SDS011;32145;50.390;30.778;2023-04-01T05:27:05;35.97;;;22.48;;
46447;SDS011;32145;50.390;30.778;2023-04-01T05:30:00;35.72;;;21.15;;
46447;SDS011;32145;50.390;30.778;2023-04-01T05:32:54;37.53;;;22.23;;
46447;SDS011;32145;50.390;30.778;2023-04-01T05:35:48;38.40;;;23.45;;
46447;SDS011;32145;50.390;30.778;2023-04-01T05:38:44;39.35;;;22.30;;
46447;SDS011;32145;50.390;30.778;2023-04-01T05:41:40;41.63;;;22.40;;
46447;SDS011;32145;50.390;30.778;2023-04-01T05:44:36;39.55;;;22.27;;
46447;SDS011;32145;50.390;30.778;2023-04-01T05:47:33;38.28;;;22.80;;
46447;SDS011;32145;50.390;30.778;2023-04-01T05:50:29;36.17;;;20.70;;
46447;SDS011;32145;50.390;30.778;2023-04-01T05:53:25;34.08;;;19.95;;
46447;SDS011;32145;50.390;30.778;2023-04-01T05:56:23;33.88;;;19.75;;
46447;SDS011;32145;50.390;30.778;2023-04-01T05:59:19;34.25;;;20.13;;
46447;SDS011;32145;50.390;30.778;2023-04-01T06:02:16;32.97;;;19.10;;
46447;SDS011;32145;50.390;30.778;2023-04-01T06:05:13;31.55;;;19.15;;
46447;SDS011;32145;50.390;30.778;2023-04-01T06:08:11;30.88;;;18.75;;
46447;SDS011;32145;50.390;30.778;2023-04-01T06:11:11;32.05;;;18.45;;
46447;SDS011;32145;50.390;30.778;2023-04-01T06:14:16;31.00;;;18.70;;
46447;SDS011;32145;50.390;30.778;2023-04-01T06:17:22;30.42;;;18.48;;
46447;SDS011;32145;50.390;30.778;2023-04-01T06:20:24;30.58;;;19.45;;
46447;SDS011;32145;50.390;30.778;2023-04-01T06:23:29;31.20;;;19.90;;
46447;SDS011;32145;50.390;30.778;2023-04-01T06:26:44;31.52;;;18.42;;
46447;SDS011;32145;50.390;30.778;2023-04-01T06:29:51;30.75;;;19.10;;
46447;SDS011;32145;50.390;30.778;2023-04-01T06:33:00;30.60;;;18.88;;
46447;SDS011;32145;50.390;30.778;2023-04-01T06:39:31;30.67;;;18.33;;
46447;SDS011;32145;50.390;30.778;2023-04-01T06:42:41;30.45;;;18.67;;
46447;SDS011;32145;50.390;30.778;2023-04-01T06:45:47;31.52;;;18.15;;
46447;SDS011;32145;50.390;30.778;2023-04-01T06:48:54;29.90;;;18.08;;
46447;SDS011;32145;50.390;30.778;2023-04-01T06:51:59;27.63;;;18.35;;
46447;SDS011;32145;50.390;30.778;2023-04-01T06:54:58;30.05;;;18.85;;
46447;SDS011;32145;50.390;30.778;2023-04-01T06:58:10;30.45;;;19.35;;
46447;SDS011;32145;50.390;30.778;2023-04-01T07:01:09;30.67;;;18.67;;
46447;SDS011;32145;50.390;30.778;2023-04-01T07:04:09;25.55;;;17.08;;
46447;SDS011;32145;50.390;30.778;2023-04-01T07:07:08;28.80;;;17.88;;
46447;SDS011;32145;50.390;30.778;2023-04-01T07:10:31;26.65;;;17.40;;
46447;SDS011;32145;50.390;30.778;2023-04-01T07:13:30;28.83;;;17.10;;
46447;SDS011;32145;50.390;30.778;2023-04-01T07:16:31;25.58;;;17.00;;
46447;SDS011;32145;50.390;30.778;2023-04-01T07:19:29;24.88;;;15.80;;
46447;SDS011;32145;50.390;30.778;2023-04-01T07:22:26;24.55;;;16.90;;
46447;SDS011;32145;50.390;30.778;2023-04-01T07:25:27;24.98;;;16.48;;
46447;SDS011;32145;50.390;30.778;2023-04-01T07:28:26;27.70;;;17.77;;
46447;SDS011;32145;50.390;30.778;2023-04-01T07:31:32;28.27;;;18.42;;
46447;SDS011;32145;50.390;30.778;2023-04-01T07:34:47;29.05;;;19.85;;
46447;SDS011;32145;50.390;30.778;2023-04-01T07:38:01;32.53;;;20.50;;
46447;SDS011;32145;50.390;30.778;2023-04-01T07:41:11;34.85;;;21.75;;
46447;SDS011;32145;50.390;30.778;2023-04-01T07:44:22;44.80;;;26.52;;
46447;SDS011;32145;50.390;30.778;2023-04-01T07:47:31;48.65;;;28.17;;
46447;SDS011;32145;50.390;30.778;2023-04-01T07:50:37;49.10;;;27.83;;
46447;SDS011;32145;50.390;30.778;2023-04-01T07:53:41;52.50;;;28.60;;
46447;SDS011;32145;50.390;30.778;2023-04-01T07:56:45;51.20;;;27.83;;
46447;SDS011;32145;50.390;30.778;2023-04-01T07:59:50;53.80;;;27.60;;
46447;SDS011;32145;50.390;30.778;2023-04-01T08:03:02;51.05;;;27.70;;
46447;SDS011;32145;50.390;30.778;2023-04-01T08:06:11;51.03;;;27.92;;
46447;SDS011;32145;50.390;30.778;2023-04-01T08:09:15;56.35;;;27.33;;
46447;SDS011;32145;50.390;30.778;2023-04-01T08:12:21;59.53;;;28.25;;
46447;SDS011;32145;50.390;30.778;2023-04-01T08:15:32;56.78;;;27.80;;
46447;SDS011;32145;50.390;30.778;2023-04-01T08:18:41;55.47;;;27.25;;
46447;SDS011;32145;50.390;30.778;2023-04-01T08:21:42;53.40;;;27.50;;
46447;SDS011;32145;50.390;30.778;2023-04-01T08:24:43;62.03;;;30.65;;
46447;SDS011;32145;50.390;30.778;2023-04-01T08:27:43;68.38;;;32.80;;
46447;SDS011;32145;50.390;30.778;2023-04-01T08:30:43;66.43;;;32.30;;
46447;SDS011;32145;50.390;30.778;2023-04-01T08:33:45;61.83;;;31.30;;
46447;SDS011;32145;50.390;30.778;2023-04-01T08:36:43;63.10;;;30.42;;
46447;SDS011;32145;50.390;30.778;2023-04-01T08:39:44;60.15;;;31.52;;
46447;SDS011;32145;50.390;30.778;2023-04-01T08:42:52;59.20;;;29.63;;
46447;SDS011;32145;50.390;30.778;2023-04-01T08:46:25;52.13;;;26.58;;
46447;SDS011;32145;50.390;30.778;2023-04-01T08:50:01;49.60;;;25.70;;
46447;SDS011;32145;50.390;30.778;2023-04-01T08:53:20;42.80;;;24.63;;
46447;SDS011;32145;50.390;30.778;2023-04-01T08:56:33;45.50;;;24.27;;
46447;SDS011;32145;50.390;30.778;2023-04-01T08:59:42;40.45;;;23.13;;
46447;SDS011;32145;50.390;30.778;2023-04-01T09:12:57;35.47;;;20.40;;
46447;SDS011;32145;50.390;30.778;2023-04-01T09:16:03;39.38;;;22.42;;
46447;SDS011;32145;50.390;30.778;2023-04-01T09:19:19;37.70;;;23.98;;
46447;SDS011;32145;50.390;30.778;2023-04-01T09:22:21;39.10;;;23.13;;
46447;SDS011;32145;50.390;30.778;2023-04-01T09:25:32;35.10;;;21.88;;
46447;SDS011;32145;50.390;30.778;2023-04-01T09:28:41;34.03;;;20.23;;
46447;SDS011;32145;50.390;30.778;2023-04-01T09:31:46;30.75;;;19.30;;
46447;SDS011;32145;50.390;30.778;2023-04-01T09:34:54;33.30;;;19.58;;
46447;SDS011;32145;50.390;30.778;2023-04-01T09:38:00;30.33;;;18.92;;
46447;SDS011;32145;50.390;30.778;2023-04-01T09:41:11;28.17;;;18.35;;
46447;SDS011;32145;50.390;30.778;2023-04-01T09:44:18;29.52;;;17.42;;
46447;SDS011;32145;50.390;30.778;2023-04-01T09:47:25;26.13;;;17.00;;
46447;SDS011;32145;50.390;30.778;2023-04-01T09:50:38;28.38;;;16.35;;
46447;SDS011;32145;50.390;30.778;2023-04-01T09:53:48;23.48;;;15.93;;
46447;SDS011;32145;50.390;30.778;2023-04-01T10:00:20;27.23;;;16.05;;
46447;SDS011;32145;50.390;30.778;2023-04-01T10:14:18;23.45;;;16.13;;
46447;SDS011;32145;50.390;30.778;2023-04-01T10:17:42;23.88;;;15.20;;
46447;SDS011;32145;50.390;30.778;2023-04-01T10:21:06;23.63;;;14.45;;
46447;SDS011;32145;50.390;30.778;2023-04-01T10:27:45;18.90;;;12.70;;
46447;SDS011;32145;50.390;30.778;2023-04-01T10:31:11;20.48;;;13.18;;
46447;SDS011;32145;50.390;30.778;2023-04-01T10:34:26;19.83;;;12.40;;
46447;SDS011;32145;50.390;30.778;2023-04-01T10:37:48;19.08;;;13.07;;
46447;SDS011;32145;50.390;30.778;2023-04-01T10:51:54;17.10;;;10.70;;
46447;SDS011;32145;50.390;30.778;2023-04-01T10:55:31;19.13;;;11.07;;
46447;SDS011;32145;50.390;30.778;2023-04-01T11:02:19;12.85;;;9.38;;
46447;SDS011;32145;50.390;30.778;2023-04-01T11:06:05;14.10;;;9.90;;
46447;SDS011;32145;50.390;30.778;2023-04-01T11:16:47;24.20;;;12.88;;
46447;SDS011;32145;50.390;30.778;2023-04-01T11:20:21;30.67;;;18.42;;
46447;SDS011;32145;50.390;30.778;2023-04-01T11:23:32;19.35;;;12.90;;
46447;SDS011;32145;50.390;30.778;2023-04-01T11:26:43;14.13;;;9.55;;
46447;SDS011;32145;50.390;30.778;2023-04-01T11:33:30;13.25;;;9.50;;
46447;SDS011;32145;50.390;30.778;2023-04-01T11:36:32;13.00;;;9.38;;
46447;SDS011;32145;50.390;30.778;2023-04-01T11:39:37;11.73;;;8.32;;
46447;SDS011;32145;50.390;30.778;2023-04-01T11:42:42;12.27;;;8.32;;
46447;SDS011;32145;50.390;30.778;2023-04-01T11:45:43;20.90;;;14.15;;
46447;SDS011;32145;50.390;30.778;2023-04-01T11:48:49;22.58;;;15.55;;
46447;SDS011;32145;50.390;30.778;2023-04-01T11:52:04;17.63;;;12.60;;
46447;SDS011;32145;50.390;30.778;2023-04-01T11:55:23;16.63;;;11.32;;
46447;SDS011;32145;50.390;30.778;2023-04-01T12:01:58;36.42;;;25.77;;
46447;SDS011;32145;50.390;30.778;2023-04-01T12:05:12;33.03;;;22.58;;
46447;SDS011;32145;50.390;30.778;2023-04-01T12:08:24;25.65;;;17.48;;
46447;SDS011;32145;50.390;30.778;2023-04-01T12:11:32;16.25;;;11.02;;
46447;SDS011;32145;50.390;30.778;2023-04-01T12:14:33;25.48;;;15.65;;
46447;SDS011;32145;50.390;30.778;2023-04-01T12:17:36;22.88;;;16.08;;
46447;SDS011;32145;50.390;30.778;2023-04-01T12:20:39;17.73;;;12.45;;
46447;SDS011;32145;50.390;30.778;2023-04-01T12:23:47;23.95;;;14.88;;
46447;SDS011;32145;50.390;30.778;2023-04-01T12:26:58;10.40;;;6.90;;
46447;SDS011;32145;50.390;30.778;2023-04-01T12:30:14;11.43;;;6.80;;
46447;SDS011;32145;50.390;30.778;2023-04-01T12:33:32;11.00;;;5.22;;
46447;SDS011;32145;50.390;30.778;2023-04-01T12:36:42;10.93;;;7.43;;
46447;SDS011;32145;50.390;30.778;2023-04-01T12:39:51;10.32;;;7.00;;
46447;SDS011;32145;50.390;30.778;2023-04-01T12:43:22;10.38;;;5.57;;
46447;SDS011;32145;50.390;30.778;2023-04-01T12:46:29;8.30;;;4.88;;
46447;SDS011;32145;50.390;30.778;2023-04-01T12:49:42;6.85;;;4.55;;
46447;SDS011;32145;50.390;30.778;2023-04-01T12:52:55;10.55;;;7.32;;
46447;SDS011;32145;50.390;30.778;2023-04-01T12:56:05;7.18;;;5.43;;
46447;SDS011;32145;50.390;30.778;2023-04-01T13:02:40;7.70;;;5.00;;
46447;SDS011;32145;50.390;30.778;2023-04-01T13:09:31;26.83;;;16.85;;
46447;SDS011;32145;50.390;30.778;2023-04-01T13:12:50;39.47;;;22.05;;
46447;SDS011;32145;50.390;30.778;2023-04-01T13:15:57;31.60;;;18.33;;
46447;SDS011;32145;50.390;30.778;2023-04-01T13:19:03;12.30;;;7.13;;
46447;SDS011;32145;50.390;30.778;2023-04-01T13:22:04;9.48;;;4.78;;
46447;SDS011;32145;50.390;30.778;2023-04-01T13:25:04;6.05;;;4.30;;
46447;SDS011;32145;50.390;30.778;2023-04-01T13:28:06;14.77;;;8.32;;
46447;SDS011;32145;50.390;30.778;2023-04-01T13:31:08;15.38;;;8.93;;
46447;SDS011;32145;50.390;30.778;2023-04-01T13:34:17;10.70;;;6.28;;
46447;SDS011;32145;50.390;30.778;2023-04-01T13:37:29;10.80;;;5.80;;
46447;SDS011;32145;50.390;30.778;2023-04-01T13:40:39;10.93;;;6.25;;
46447;SDS011;32145;50.390;30.778;2023-04-01T13:43:43;6.57;;;4.80;;
46447;SDS011;32145;50.390;30.778;2023-04-01T13:46:52;6.70;;;4.45;;
46447;SDS011;32145;50.390;30.778;2023-04-01T13:53:28;7.28;;;3.83;;
46447;SDS011;32145;50.390;30.778;2023-04-01T13:59:40;15.52;;;10.02;;
46447;SDS011;32145;50.390;30.778;2023-04-01T14:02:55;25.08;;;15.10;;
46447;SDS011;32145;50.390;30.778;2023-04-01T14:06:09;13.95;;;8.15;;
46447;SDS011;32145;50.390;30.778;2023-04-01T14:09:19;12.02;;;5.80;;
46447;SDS011;32145;50.390;30.778;2023-04-01T14:12:30;7.25;;;4.57;;
46447;SDS011;32145;50.390;30.778;2023-04-01T14:15:36;8.07;;;4.40;;
46447;SDS011;32145;50.390;30.778;2023-04-01T14:19:02;7.47;;;4.10;;
46447;SDS011;32145;50.390;30.778;2023-04-01T14:22:05;5.95;;;4.10;;
46447;SDS011;32145;50.390;30.778;2023-04-01T14:25:23;8.98;;;4.97;;
46447;SDS011;32145;50.390;30.778;2023-04-01T14:28:34;7.00;;;4.43;;
46447;SDS011;32145;50.390;30.778;2023-04-01T14:31:36;7.72;;;4.35;;
46447;SDS011;32145;50.390;30.778;2023-04-01T14:34:52;5.90;;;4.10;;
46447;SDS011;32145;50.390;30.778;2023-04-01T14:38:17;8.98;;;4.45;;
46447;SDS011;32145;50.390;30.778;2023-04-01T14:41:26;8.73;;;4.55;;
46447;SDS011;32145;50.390;30.778;2023-04-01T14:47:58;7.10;;;4.20;;
46447;SDS011;32145;50.390;30.778;2023-04-01T14:51:09;8.00;;;4.40;;
46447;SDS011;32145;50.390;30.778;2023-04-01T14:54:11;8.00;;;4.50;;
46447;SDS011;32145;50.390;30.778;2023-04-01T14:57:10;9.10;;;5.13;;
46447;SDS011;32145;50.390;30.778;2023-04-01T15:00:12;8.27;;;4.78;;
46447;SDS011;32145;50.390;30.778;2023-04-01T15:03:09;14.88;;;8.05;;
46447;SDS011;32145;50.390;30.778;2023-04-01T15:09:38;19.33;;;11.43;;
46447;SDS011;32145;50.390;30.778;2023-04-01T15:12:45;24.73;;;13.77;;
46447;SDS011;32145;50.390;30.778;2023-04-01T15:15:58;33.50;;;17.55;;
46447;SDS011;32145;50.390;30.778;2023-04-01T15:19:07;25.85;;;15.43;;
46447;SDS011;32145;50.390;30.778;2023-04-01T15:22:18;20.02;;;12.18;;
46447;SDS011;32145;50.390;30.778;2023-04-01T15:25:35;22.08;;;14.07;;
46447;SDS011;32145;50.390;30.778;2023-04-01T15:28:46;16.13;;;10.50;;
46447;SDS011;32145;50.390;30.778;2023-04-01T15:31:55;13.35;;;8.32;;
46447;SDS011;32145;50.390;30.778;2023-04-01T15:34:59;9.88;;;7.22;;
46447;SDS011;32145;50.390;30.778;2023-04-01T15:38:14;10.20;;;6.25;;
46447;SDS011;32145;50.390;30.778;2023-04-01T15:41:20;11.48;;;6.57;;
46447;SDS011;32145;50.390;30.778;2023-04-01T15:44:26;11.02;;;6.35;;
46447;SDS011;32145;50.390;30.778;2023-04-01T15:47:34;9.52;;;5.35;;
46447;SDS011;32145;50.390;30.778;2023-04-01T15:50:36;10.90;;;7.20;;
46447;SDS011;32145;50.390;30.778;2023-04-01T15:53:52;10.27;;;7.15;;
46447;SDS011;32145;50.390;30.778;2023-04-01T15:57:02;13.85;;;7.65;;
46447;SDS011;32145;50.390;30.778;2023-04-01T16:00:09;9.98;;;6.57;;
46447;SDS011;32145;50.390;30.778;2023-04-01T16:03:14;10.27;;;6.20;;
46447;SDS011;32145;50.390;30.778;2023-04-01T16:06:17;9.43;;;5.70;;
46447;SDS011;32145;50.390;30.778;2023-04-01T16:09:34;13.32;;;7.63;;
46447;SDS011;32145;50.390;30.778;2023-04-01T16:12:48;11.95;;;6.30;;
46447;SDS011;32145;50.390;30.778;2023-04-01T16:15:55;15.02;;;8.68;;
46447;SDS011;32145;50.390;30.778;2023-04-01T16:19:10;14.15;;;8.00;;
46447;SDS011;32145;50.390;30.778;2023-04-01T16:22:19;11.02;;;6.90;;
46447;SDS011;32145;50.390;30.778;2023-04-01T16:25:25;11.82;;;7.60;;
46447;SDS011;32145;50.390;30.778;2023-04-01T16:28:27;12.20;;;7.78;;
46447;SDS011;32145;50.390;30.778;2023-04-01T16:31:29;13.57;;;7.65;;
46447;SDS011;32145;50.390;30.778;2023-04-01T16:34:30;12.68;;;6.88;;
46447;SDS011;32145;50.390;30.778;2023-04-01T16:37:31;11.25;;;7.03;;
46447;SDS011;32145;50.390;30.778;2023-04-01T16:40:37;10.15;;;6.15;;
46447;SDS011;32145;50.390;30.778;2023-04-01T16:43:38;10.88;;;6.57;;
46447;SDS011;32145;50.390;30.778;2023-04-01T16:46:35;10.85;;;6.38;;
46447;SDS011;32145;50.390;30.778;2023-04-01T16:49:36;9.65;;;6.60;;
46447;SDS011;32145;50.390;30.778;2023-04-01T16:52:40;9.25;;;6.38;;
46447;SDS011;32145;50.390;30.778;2023-04-01T16:55:48;10.05;;;6.90;;
46447;SDS011;32145;50.390;30.778;2023-04-01T16:58:48;10.50;;;7.28;;
46447;SDS011;32145;50.390;30.778;2023-04-01T17:01:55;22.77;;;14.57;;
46447;SDS011;32145;50.390;30.778;2023-04-01T17:04:58;20.48;;;12.73;;
46447;SDS011;32145;50.390;30.778;2023-04-01T17:07:59;23.45;;;14.38;;
46447;SDS011;32145;50.390;30.778;2023-04-01T17:11:04;35.53;;;20.52;;
46447;SDS011;32145;50.390;30.778;2023-04-01T17:14:08;22.77;;;14.10;;
46447;SDS011;32145;50.390;30.778;2023-04-01T17:17:25;13.77;;;9.65;;
46447;SDS011;32145;50.390;30.778;2023-04-01T17:20:42;12.15;;;8.15;;
46447;SDS011;32145;50.390;30.778;2023-04-01T17:23:45;12.15;;;9.13;;
46447;SDS011;32145;50.390;30.778;2023-04-01T17:26:49;14.45;;;9.80;;
46447;SDS011;32145;50.390;30.778;2023-04-01T17:33:25;16.33;;;11.23;;
46447;SDS011;32145;50.390;30.778;2023-04-01T17:36:47;16.63;;;11.57;;
46447;SDS011;32145;50.390;30.778;2023-04-01T17:40:00;19.98;;;13.20;;
46447;SDS011;32145;50.390;30.778;2023-04-01T17:43:14;19.67;;;12.65;;
46447;SDS011;32145;50.390;30.778;2023-04-01T17:46:24;17.15;;;11.15;;
46447;SDS011;32145;50.390;30.778;2023-04-01T17:49:28;16.63;;;11.45;;
46447;SDS011;32145;50.390;30.778;2023-04-01T17:52:33;15.52;;;11.20;;
46447;SDS011;32145;50.390;30.778;2023-04-01T17:58:58;20.35;;;12.18;;
46447;SDS011;32145;50.390;30.778;2023-04-01T18:02:00;19.45;;;14.00;;
46447;SDS011;32145;50.390;30.778;2023-04-01T18:05:02;23.25;;;14.68;;
46447;SDS011;32145;50.390;30.778;2023-04-01T18:08:24;18.90;;;13.50;;
46447;SDS011;32145;50.390;30.778;2023-04-01T18:11:34;19.85;;;14.20;;
46447;SDS011;32145;50.390;30.778;2023-04-01T18:14:43;24.27;;;16.45;;
46447;SDS011;32145;50.390;30.778;2023-04-01T18:17:56;22.92;;;15.70;;
46447;SDS011;32145;50.390;30.778;2023-04-01T18:21:04;22.02;;;14.43;;
46447;SDS011;32145;50.390;30.778;2023-04-01T18:23:57;20.02;;;13.95;;
46447;SDS011;32145;50.390;30.778;2023-04-01T18:26:45;19.73;;;13.25;;
46447;SDS011;32145;50.390;30.778;2023-04-01T18:29:46;20.48;;;13.82;;
46447;SDS011;32145;50.390;30.778;2023-04-01T18:32:48;20.08;;;14.02;;
46447;SDS011;32145;50.390;30.778;2023-04-01T18:35:48;19.80;;;13.13;;
46447;SDS011;32145;50.390;30.778;2023-04-01T18:38:47;17.90;;;12.50;;
46447;SDS011;32145;50.390;30.778;2023-04-01T18:41:51;21.48;;;12.98;;
46447;SDS011;32145;50.390;30.778;2023-04-01T18:44:48;19.42;;;12.65;;
46447;SDS011;32145;50.390;30.778;2023-04-01T18:47:40;20.05;;;12.00;;
46447;SDS011;32145;50.390;30.778;2023-04-01T18:50:41;17.45;;;11.43;;
46447;SDS011;32145;50.390;30.778;2023-04-01T18:53:41;15.70;;;11.20;;
46447;SDS011;32145;50.390;30.778;2023-04-01T18:56:33;18.70;;;11.02;;
46447;SDS011;32145;50.390;30.778;2023-04-01T18:59:26;15.75;;;9.63;;
46447;SDS011;32145;50.390;30.778;2023-04-01T19:02:29;16.45;;;10.00;;
46447;SDS011;32145;50.390;30.778;2023-04-01T19:05:23;15.30;;;9.45;;
46447;SDS011;32145;50.390;30.778;2023-04-01T19:08:27;14.55;;;10.25;;
46447;SDS011;32145;50.390;30.778;2023-04-01T19:11:29;13.25;;;9.60;;
46447;SDS011;32145;50.390;30.778;2023-04-01T19:14:39;14.73;;;10.65;;